Vento Di Levante — IBNN — position and weather

sailwx.info

Track history (hours):
 
Tides and Currents Weather Stations Pressure Air Temp Water Temp Dewpoint Dewpoint Depression Visibility Wind Speed Wind Dir Waves Ship Positions

Vento Di Levante

Last reported at 2018-Jun-13 10:24 UTC. Time now 2018-Jun-19 02:25 UTC.
Position N 05°25' E 000°28'.

Length 211 m; draft 8 m.

Type: Ship (hazmat cat A). MMSI: 247304200.

Date/timePositionNaut miles runAvg speedWind from/ knotsBaromVisibWave heightAir tempDewpointWater temp
2018-Jun-13 10:24N 05°25' E 000°28'718.6
2018-Jun-13 10:00N 05°25' E 000°21'918.3
2018-Jun-13 09:30N 05°29' E 000°13'1018.8
2018-Jun-13 09:00N 05°35' E 000°05'510.6
2018-Jun-13 08:30N 05°38' E 000°01'0 0.5
2018-Jun-13 08:00N 05°38' E 000°01'0 0.0
2018-Jun-13 07:30N 05°38' E 000°01'0 0.0
2018-Jun-13 07:00N 05°38' E 000°01'0 0.0
2018-Jun-13 06:30N 05°38' E 000°01'0 0.0
2018-Jun-13 06:00N 05°38' E 000°01'0 0.0
2018-Jun-13 05:30N 05°38' E 000°01'0 0.0
2018-Jun-13 05:00N 05°38' E 000°01'0 0.0
2018-Jun-13 04:30N 05°38' E 000°01'0 0.0
2018-Jun-13 04:00N 05°38' E 000°01'0 0.0
2018-Jun-13 03:30N 05°38' E 000°01'0 0.0
2018-Jun-13 03:00N 05°38' E 000°01'0 0.0
2018-Jun-13 02:30N 05°38' E 000°01'0 0.0
2018-Jun-13 02:00N 05°38' E 000°01'0 0.0
2018-Jun-13 01:30N 05°38' E 000°01'0 0.0
2018-Jun-13 01:00N 05°38' E 000°01'0 0.1
2018-Jun-13 00:30N 05°38' E 000°01'2 4.9
2018-Jun-13 00:00N 05°37' E 000°03'3 6.6
2018-Jun-12 23:30N 05°36' E 000°06'2 4.0
2018-Jun-12 23:00N 05°35' E 000°08'4 7.2
2018-Jun-12 22:30N 05°32' E 000°10'3 6.3
2018-Jun-12 22:00N 05°31' E 000°13'4 7.3
2018-Jun-12 21:30N 05°30' E 000°17'1 1.9
2018-Jun-12 21:00N 05°31' E 000°16'4 7.9
2018-Jun-12 20:30N 05°31' E 000°12'3 5.6
2018-Jun-12 20:00N 05°31' E 000°09'0 0.6
2018-Jun-12 19:30N 05°31' E 000°09'0 0.7
2018-Jun-12 19:00N 05°31' E 000°09'2 3.6
2018-Jun-12 18:30N 05°29' E 000°10'2 3.3
2018-Jun-12 18:00N 05°29' E 000°08'2 4.4
2018-Jun-12 17:30N 05°27' E 000°08'1 1.3
2018-Jun-12 16:59N 05°26' E 000°08'0 0.8
2018-Jun-12 16:28N 05°26' E 000°09'0 0.9
2018-Jun-12 16:00N 05°26' E 000°09'1 1.0
2018-Jun-12 15:30N 05°25' E 000°09'2 4.0
2018-Jun-12 15:00N 05°27' E 000°10'713.1
2018-Jun-12 14:30N 05°34' E 000°11'0 0.5
2018-Jun-12 14:00N 05°34' E 000°11'0 0.9
2018-Jun-12 13:30N 05°33' E 000°11'0 0.9
2018-Jun-12 13:00N 05°33' E 000°11'0 0.8
2018-Jun-12 12:30N 05°33' E 000°11'0 0.8
2018-Jun-12 11:59N 05°32' E 000°11'0 0.8
2018-Jun-12 11:30N 05°32' E 000°11'0 0.7
2018-Jun-12 11:00N 05°31' E 000°11'0 0.7
2018-Jun-12 10:30N 05°31' E 000°11'0 0.6
2018-Jun-12 09:59N 05°31' E 000°11'0 0.6
2018-Jun-12 09:30N 05°30' E 000°11'0 0.5
2018-Jun-12 09:00N 05°30' E 000°11'0 0.5
2018-Jun-12 08:28N 05°30' E 000°11'0 0.5
2018-Jun-12 08:00N 05°30' E 000°11'0 0.6
2018-Jun-12 07:30N 05°29' E 000°11'0 0.6
2018-Jun-12 07:00N 05°29' E 000°11'0 0.7
2018-Jun-12 06:30N 05°29' E 000°11'0 0.5
2018-Jun-12 06:00N 05°29' E 000°11'2 4.8
2018-Jun-12 05:30N 05°27' E 000°09'816.1
2018-Jun-12 05:00N 05°20' E 000°05'1015.8
2018-Jun-12 04:24N 05°11' E 000°02'  
2018-Jun-08 11:30N 09°10' W 013°56'918.1
2018-Jun-08 11:00N 09°17' W 013°50'917.4
2018-Jun-08 10:31N 09°23' W 013°44'510.5
2018-Jun-08 10:00N 09°28' W 013°44'2 0.4
2018-Jun-08 03:48N 09°31' W 013°43'0 0.0
2018-Jun-08 03:30N 09°31' W 013°43'0 0.0
2018-Jun-08 02:58N 09°31' W 013°43'0 0.0
2018-Jun-08 02:28N 09°31' W 013°43'0 0.0
2018-Jun-08 01:58N 09°31' W 013°43'0 0.0
2018-Jun-08 01:28N 09°31' W 013°43'0 0.0
2018-Jun-08 01:00N 09°31' W 013°43'0 0.0
2018-Jun-08 00:28N 09°31' W 013°43'0 0.0
2018-Jun-08 00:00N 09°31' W 013°43'0 0.0
2018-Jun-07 23:28N 09°31' W 013°43'0 0.0
2018-Jun-07 23:00N 09°31' W 013°43'0 0.0
2018-Jun-07 22:28N 09°31' W 013°43'0 0.0
2018-Jun-07 21:57N 09°31' W 013°43'0 0.0
2018-Jun-07 21:28N 09°31' W 013°43'0 0.0
2018-Jun-07 20:58N 09°31' W 013°43'0 0.0
2018-Jun-07 20:28N 09°31' W 013°43'0 0.0
2018-Jun-07 19:58N 09°31' W 013°43'0 0.0
2018-Jun-07 19:30N 09°31' W 013°43'0 0.0
2018-Jun-07 18:58N 09°31' W 013°43'0 0.0
2018-Jun-07 18:30N 09°31' W 013°43'0 0.0
2018-Jun-07 17:58N 09°31' W 013°43'0 0.0
2018-Jun-07 17:28N 09°31' W 013°43'0 0.0
2018-Jun-07 17:00N 09°31' W 013°43'0 0.0
2018-Jun-07 16:30N 09°31' W 013°43'0 0.0
2018-Jun-07 15:58N 09°31' W 013°43'0 0.0
2018-Jun-07 15:18N 09°31' W 013°43'0 0.0
2018-Jun-07 15:00N 09°31' W 013°43'0 0.1
2018-Jun-07 14:30N 09°31' W 013°43'2 3.7
2018-Jun-07 14:00N 09°29' W 013°44'3 6.6
2018-Jun-07 13:30N 09°26' W 013°44'714.9
2018-Jun-07 13:00N 09°20' W 013°48'917.6
2018-Jun-07 12:30N 09°18' W 013°57'919.1
2018-Jun-07 12:00N 09°20' W 014°06'  
Track history (hours):
 
Tides and Currents Weather Stations Pressure Air Temp Water Temp Dewpoint Dewpoint Depression Visibility Wind Speed Wind Dir Waves Ship Positions

Vento Di Levante

Last reported at 2018-Jun-13 10:24 UTC. Time now 2018-Jun-19 02:25 UTC.
Position N 05°25' E 000°28'.

Length 211 m; draft 8 m.

Type: Ship (hazmat cat A). MMSI: 247304200.

Date/timePositionNaut miles runAvg speedWind from/ knotsBaromVisibWave heightAir tempDewpointWater temp
2018-Jun-13 10:24N 05°25' E 000°28'718.6
2018-Jun-13 10:00N 05°25' E 000°21'918.3
2018-Jun-13 09:30N 05°29' E 000°13'1018.8
2018-Jun-13 09:00N 05°35' E 000°05'510.6
2018-Jun-13 08:30N 05°38' E 000°01'0 0.5
2018-Jun-13 08:00N 05°38' E 000°01'0 0.0
2018-Jun-13 07:30N 05°38' E 000°01'0 0.0
2018-Jun-13 07:00N 05°38' E 000°01'0 0.0
2018-Jun-13 06:30N 05°38' E 000°01'0 0.0
2018-Jun-13 06:00N 05°38' E 000°01'0 0.0
2018-Jun-13 05:30N 05°38' E 000°01'0 0.0
2018-Jun-13 05:00N 05°38' E 000°01'0 0.0
2018-Jun-13 04:30N 05°38' E 000°01'0 0.0
2018-Jun-13 04:00N 05°38' E 000°01'0 0.0
2018-Jun-13 03:30N 05°38' E 000°01'0 0.0
2018-Jun-13 03:00N 05°38' E 000°01'0 0.0
2018-Jun-13 02:30N 05°38' E 000°01'0 0.0
2018-Jun-13 02:00N 05°38' E 000°01'0 0.0
2018-Jun-13 01:30N 05°38' E 000°01'0 0.0
2018-Jun-13 01:00N 05°38' E 000°01'0 0.1
2018-Jun-13 00:30N 05°38' E 000°01'2 4.9
2018-Jun-13 00:00N 05°37' E 000°03'3 6.6
2018-Jun-12 23:30N 05°36' E 000°06'2 4.0
2018-Jun-12 23:00N 05°35' E 000°08'4 7.2
2018-Jun-12 22:30N 05°32' E 000°10'3 6.3
2018-Jun-12 22:00N 05°31' E 000°13'4 7.3
2018-Jun-12 21:30N 05°30' E 000°17'1 1.9
2018-Jun-12 21:00N 05°31' E 000°16'4 7.9
2018-Jun-12 20:30N 05°31' E 000°12'3 5.6
2018-Jun-12 20:00N 05°31' E 000°09'0 0.6
2018-Jun-12 19:30N 05°31' E 000°09'0 0.7
2018-Jun-12 19:00N 05°31' E 000°09'2 3.6
2018-Jun-12 18:30N 05°29' E 000°10'2 3.3
2018-Jun-12 18:00N 05°29' E 000°08'2 4.4
2018-Jun-12 17:30N 05°27' E 000°08'1 1.3
2018-Jun-12 16:59N 05°26' E 000°08'0 0.8
2018-Jun-12 16:28N 05°26' E 000°09'0 0.9
2018-Jun-12 16:00N 05°26' E 000°09'1 1.0
2018-Jun-12 15:30N 05°25' E 000°09'2 4.0
2018-Jun-12 15:00N 05°27' E 000°10'713.1
2018-Jun-12 14:30N 05°34' E 000°11'0 0.5
2018-Jun-12 14:00N 05°34' E 000°11'0 0.9
2018-Jun-12 13:30N 05°33' E 000°11'0 0.9
2018-Jun-12 13:00N 05°33' E 000°11'0 0.8
2018-Jun-12 12:30N 05°33' E 000°11'0 0.8
2018-Jun-12 11:59N 05°32' E 000°11'0 0.8
2018-Jun-12 11:30N 05°32' E 000°11'0 0.7
2018-Jun-12 11:00N 05°31' E 000°11'0 0.7
2018-Jun-12 10:30N 05°31' E 000°11'0 0.6
2018-Jun-12 09:59N 05°31' E 000°11'0 0.6
2018-Jun-12 09:30N 05°30' E 000°11'0 0.5
2018-Jun-12 09:00N 05°30' E 000°11'0 0.5
2018-Jun-12 08:28N 05°30' E 000°11'0 0.5
2018-Jun-12 08:00N 05°30' E 000°11'0 0.6
2018-Jun-12 07:30N 05°29' E 000°11'0 0.6
2018-Jun-12 07:00N 05°29' E 000°11'0 0.7
2018-Jun-12 06:30N 05°29' E 000°11'0 0.5
2018-Jun-12 06:00N 05°29' E 000°11'2 4.8
2018-Jun-12 05:30N 05°27' E 000°09'816.1
2018-Jun-12 05:00N 05°20' E 000°05'1015.8
2018-Jun-12 04:24N 05°11' E 000°02'  
2018-Jun-08 11:30N 09°10' W 013°56'918.1
2018-Jun-08 11:00N 09°17' W 013°50'917.4
2018-Jun-08 10:31N 09°23' W 013°44'510.5
2018-Jun-08 10:00N 09°28' W 013°44'2 0.4
2018-Jun-08 03:48N 09°31' W 013°43'0 0.0
2018-Jun-08 03:30N 09°31' W 013°43'0 0.0
2018-Jun-08 02:58N 09°31' W 013°43'0 0.0
2018-Jun-08 02:28N 09°31' W 013°43'0 0.0
2018-Jun-08 01:58N 09°31' W 013°43'0 0.0
2018-Jun-08 01:28N 09°31' W 013°43'0 0.0
2018-Jun-08 01:00N 09°31' W 013°43'0 0.0
2018-Jun-08 00:28N 09°31' W 013°43'0 0.0
2018-Jun-08 00:00N 09°31' W 013°43'0 0.0
2018-Jun-07 23:28N 09°31' W 013°43'0 0.0
2018-Jun-07 23:00N 09°31' W 013°43'0 0.0
2018-Jun-07 22:28N 09°31' W 013°43'0 0.0
2018-Jun-07 21:57N 09°31' W 013°43'0 0.0
2018-Jun-07 21:28N 09°31' W 013°43'0 0.0
2018-Jun-07 20:58N 09°31' W 013°43'0 0.0
2018-Jun-07 20:28N 09°31' W 013°43'0 0.0
2018-Jun-07 19:58N 09°31' W 013°43'0 0.0
2018-Jun-07 19:30N 09°31' W 013°43'0 0.0
2018-Jun-07 18:58N 09°31' W 013°43'0 0.0
2018-Jun-07 18:30N 09°31' W 013°43'0 0.0
2018-Jun-07 17:58N 09°31' W 013°43'0 0.0
2018-Jun-07 17:28N 09°31' W 013°43'0 0.0
2018-Jun-07 17:00N 09°31' W 013°43'0 0.0
2018-Jun-07 16:30N 09°31' W 013°43'0 0.0
2018-Jun-07 15:58N 09°31' W 013°43'0 0.0
2018-Jun-07 15:18N 09°31' W 013°43'0 0.0
2018-Jun-07 15:00N 09°31' W 013°43'0 0.1
2018-Jun-07 14:30N 09°31' W 013°43'2 3.7
2018-Jun-07 14:00N 09°29' W 013°44'3 6.6
2018-Jun-07 13:30N 09°26' W 013°44'714.9
2018-Jun-07 13:00N 09°20' W 013°48'917.6
2018-Jun-07 12:30N 09°18' W 013°57'919.1
2018-Jun-07 12:00N 09°20' W 014°06'  

Dump ship's entire track history